Linzy — SIRU — position and weather

sailwx.info

Track history (hours):
 
Tides and Currents Weather Stations Pressure Air Temp Water Temp Dewpoint Dewpoint Depression Visibility Wind Speed Wind Dir Waves Ship Positions

Linzy

Last reported at 2016-Jul-26 15:27 UTC. Time now 2016-Jul-26 16:04 UTC.
Position N 55°33' E 014°22'.

Length 15 m.

Type: Fishing. MMSI: 265507290.

Date/timePositionNaut miles runAvg speedWind from/ knotsBaromVisibWave heightAir tempDewpointWater temp
2016-Jul-26 15:27N 55°33' E 014°22'0 0.0
2016-Jul-26 14:33N 55°33' E 014°22'5 4.6
2016-Jul-26 13:32N 55°35' E 014°29'4 4.2
2016-Jul-26 12:28N 55°35' E 014°37'2 2.6
2016-Jul-26 11:31N 55°33' E 014°41'3 2.9
2016-Jul-26 10:33N 55°32' E 014°46'3 2.7
2016-Jul-26 09:33N 55°30' E 014°48'3 2.8
2016-Jul-26 08:34N 55°29' E 014°53'0 0.3
2016-Jul-26 07:16N 55°29' E 014°54'2 3.0
2016-Jul-26 06:33N 55°30' E 014°50'3 3.0
2016-Jul-26 05:33N 55°31' E 014°46'3 3.0
2016-Jul-26 04:31N 55°32' E 014°40'3 3.0
2016-Jul-26 03:34N 55°34' E 014°36'5 3.5
2016-Jul-26 02:17N 55°35' E 014°28'4 5.2
2016-Jul-26 01:30N 55°33' E 014°22'0 0.0
2016-Jul-26 00:30N 55°33' E 014°22'0 0.0
2016-Jul-25 22:18N 55°33' E 014°22'0 0.0
2016-Jul-25 21:30N 55°33' E 014°22'0 0.0
2016-Jul-25 20:12N 55°33' E 014°22'0 0.0
2016-Jul-25 19:06N 55°33' E 014°22'0 0.0
2016-Jul-25 18:12N 55°33' E 014°22'0 0.0
2016-Jul-25 17:30N 55°33' E 014°22'0 0.0
2016-Jul-25 16:30N 55°33' E 014°22'0 0.0
2016-Jul-25 15:30N 55°33' E 014°22'0 0.0
2016-Jul-25 14:30N 55°33' E 014°22'0 0.0
2016-Jul-25 13:30N 55°33' E 014°22'0 0.0
2016-Jul-25 11:24N 55°33' E 014°22'1 1.2
2016-Jul-25 10:33N 55°34' E 014°23'5 5.0
2016-Jul-25 09:32N 55°33' E 014°32'7 7.0
2016-Jul-25 08:33N 55°31' E 014°44'6 4.1
2016-Jul-25 07:11N 55°29' E 014°53'1 2.2
2016-Jul-25 06:33N 55°30' E 014°51'3 2.9
2016-Jul-25 05:33N 55°31' E 014°46'3 3.0
2016-Jul-25 04:32N 55°32' E 014°41'3 3.1
2016-Jul-25 03:34N 55°34' E 014°37'3 3.3
2016-Jul-25 02:33N 55°35' E 014°32'6 3.0
2016-Jul-25 00:31N 55°33' E 014°22'0 0.0
2016-Jul-24 23:19N 55°33' E 014°22'0 0.0
2016-Jul-24 22:31N 55°33' E 014°22'0 0.0
2016-Jul-24 21:25N 55°33' E 014°22'0 0.0
2016-Jul-24 20:31N 55°33' E 014°22'0 0.0
2016-Jul-24 19:13N 55°33' E 014°22'0 0.0
2016-Jul-24 18:25N 55°33' E 014°22'0 0.0
2016-Jul-24 16:25N 55°33' E 014°22'0 0.0
2016-Jul-24 15:31N 55°33' E 014°22'0 0.0
2016-Jul-24 14:31N 55°33' E 014°22'0 0.0
2016-Jul-24 13:25N 55°33' E 014°22'0 0.0
2016-Jul-24 12:31N 55°33' E 014°22'0 0.0
2016-Jul-24 11:31N 55°33' E 014°22'0 0.0
2016-Jul-24 10:31N 55°33' E 014°22'0 0.0
2016-Jul-24 09:19N 55°33' E 014°22'0 0.0
2016-Jul-24 08:25N 55°33' E 014°22'0 0.0
2016-Jul-24 07:31N 55°33' E 014°22'0 0.0
2016-Jul-24 06:25N 55°33' E 014°22'0 0.0
2016-Jul-24 05:31N 55°33' E 014°22'0 0.0
2016-Jul-24 04:31N 55°33' E 014°22'0 0.0
2016-Jul-24 03:31N 55°33' E 014°22'0 0.0
2016-Jul-24 02:31N 55°33' E 014°22'0 0.0
2016-Jul-24 01:31N 55°33' E 014°21'0 0.0
2016-Jul-24 00:31N 55°33' E 014°22'0 0.0
2016-Jul-23 23:07N 55°33' E 014°22'0 0.0
2016-Jul-23 22:31N 55°33' E 014°22'0 0.0
2016-Jul-23 20:31N 55°33' E 014°22'0 0.0
2016-Jul-23 19:31N 55°33' E 014°22'0 0.0
2016-Jul-23 18:31N 55°33' E 014°22'0 0.0
2016-Jul-23 17:25N 55°33' E 014°22'0 0.0
2016-Jul-23 16:31N 55°33' E 014°22'0 0.0
2016-Jul-23 15:31N 55°33' E 014°22'0 0.0
2016-Jul-23 14:31N 55°33' E 014°22'0 0.0
2016-Jul-23 11:31N 55°33' E 014°22'0 0.0
2016-Jul-23 10:25N 55°33' E 014°22'0 0.0
2016-Jul-23 09:31N 55°33' E 014°22'0 0.0
2016-Jul-23 08:31N 55°33' E 014°22'0 0.0
2016-Jul-23 07:31N 55°33' E 014°22'0 0.0
2016-Jul-23 06:31N 55°33' E 014°22'0 0.0
2016-Jul-23 04:31N 55°33' E 014°22'0 0.0
2016-Jul-23 03:19N 55°33' E 014°22'0 0.0
2016-Jul-23 02:31N 55°33' E 014°22'0 0.0
2016-Jul-23 01:31N 55°33' E 014°22'0 0.0
2016-Jul-23 00:25N 55°33' E 014°22'0 0.0
2016-Jul-22 23:31N 55°33' E 014°22'0 0.0
2016-Jul-22 22:31N 55°33' E 014°22'0 0.0
2016-Jul-22 21:31N 55°33' E 014°22'0 0.0
2016-Jul-22 20:31N 55°33' E 014°22'0 0.0
2016-Jul-22 19:31N 55°33' E 014°22'0 0.0
2016-Jul-22 18:31N 55°33' E 014°22'0 0.0
2016-Jul-22 17:31N 55°33' E 014°22'0 0.0
2016-Jul-22 16:13N 55°33' E 014°22'0 0.0
2016-Jul-22 15:31N 55°33' E 014°22'0 0.0
2016-Jul-22 14:31N 55°33' E 014°22'0 0.0
2016-Jul-22 13:31N 55°33' E 014°22'0 0.0
2016-Jul-22 12:31N 55°33' E 014°22'0 0.0
2016-Jul-22 11:31N 55°33' E 014°22'0 0.0
2016-Jul-22 10:31N 55°33' E 014°22'0 0.0
2016-Jul-22 09:25N 55°33' E 014°22'0 0.0
2016-Jul-22 08:19N 55°33' E 014°22'0 0.0
2016-Jul-22 07:31N 55°33' E 014°22'0 0.0
2016-Jul-22 04:31N 55°33' E 014°22'0 0.0
2016-Jul-22 03:31N 55°33' E 014°22'0 0.0
2016-Jul-22 02:31N 55°33' E 014°21'0 0.0
2016-Jul-22 01:13N 55°33' E 014°22'0 0.0
2016-Jul-22 00:31N 55°33' E 014°22'0 0.0
2016-Jul-21 23:31N 55°33' E 014°22'0 0.0
2016-Jul-21 22:25N 55°33' E 014°22'0 0.0
2016-Jul-21 21:31N 55°33' E 014°22'0 0.0
2016-Jul-21 20:31N 55°33' E 014°22'0 0.0
2016-Jul-21 19:31N 55°33' E 014°22'0 0.0
2016-Jul-21 18:31N 55°33' E 014°22'0 0.0
2016-Jul-21 17:19N 55°33' E 014°22'0 0.0
2016-Jul-21 16:31N 55°33' E 014°22'0 0.0
2016-Jul-21 15:31N 55°33' E 014°22'0 0.0
2016-Jul-21 14:31N 55°33' E 014°22'0 0.0
2016-Jul-21 13:31N 55°33' E 014°22'0 0.0
2016-Jul-21 12:31N 55°33' E 014°22'0 0.0
2016-Jul-21 11:19N 55°33' E 014°22'0 0.0
2016-Jul-21 10:32N 55°33' E 014°22'0 0.0
2016-Jul-21 09:31N 55°33' E 014°22'0 0.0
2016-Jul-21 08:25N 55°33' E 014°22'0 0.0
2016-Jul-21 07:20N 55°33' E 014°22'0 0.0
2016-Jul-21 06:20N 55°33' E 014°22'0 0.0
2016-Jul-21 05:32N 55°33' E 014°22'0 0.0
2016-Jul-21 04:26N 55°33' E 014°22'0 0.0
2016-Jul-21 03:32N 55°33' E 014°22'0 0.0
2016-Jul-21 02:32N 55°33' E 014°22'0 0.0
2016-Jul-21 01:14N 55°33' E 014°22'0 0.0
2016-Jul-21 00:32N 55°33' E 014°22'0 0.0
2016-Jul-20 23:32N 55°33' E 014°22'0 0.0
2016-Jul-20 22:32N 55°33' E 014°22'0 0.0
2016-Jul-20 21:26N 55°33' E 014°22'0 0.0
2016-Jul-20 20:32N 55°33' E 014°22'0 0.0
2016-Jul-20 19:32N 55°33' E 014°22'0 0.0
2016-Jul-20 18:26N 55°33' E 014°22'0 0.0
2016-Jul-20 17:32N 55°33' E 014°22'0 0.0
2016-Jul-20 16:32N 55°33' E 014°22'0 0.0
2016-Jul-20 15:32N 55°33' E 014°22'0 0.0
2016-Jul-20 14:32N 55°33' E 014°22'0 0.0
2016-Jul-20 13:32N 55°33' E 014°22'0 0.0
2016-Jul-20 12:32N 55°33' E 014°22'0 0.0
2016-Jul-20 11:32N 55°33' E 014°22'0 0.0
2016-Jul-20 10:32N 55°33' E 014°22'0 0.0
2016-Jul-20 09:32N 55°33' E 014°22'0 0.0
2016-Jul-20 08:32N 55°33' E 014°22'0 0.0
2016-Jul-20 07:26N 55°33' E 014°22'0 0.0
2016-Jul-20 06:32N 55°33' E 014°22'0 0.0
2016-Jul-20 05:32N 55°33' E 014°22'0 0.0
2016-Jul-20 04:26N 55°33' E 014°22'0 0.0
2016-Jul-20 03:32N 55°33' E 014°22'0 0.0
2016-Jul-20 02:20N 55°33' E 014°22'0 0.0
2016-Jul-20 01:20N 55°33' E 014°22'0 0.0
2016-Jul-20 00:32N 55°33' E 014°22'0 0.0
2016-Jul-19 23:32N 55°33' E 014°22'0 0.0
2016-Jul-19 22:26N 55°33' E 014°22'0 0.0
2016-Jul-19 21:26N 55°33' E 014°22'0 0.0
2016-Jul-19 20:26N 55°33' E 014°22'0 0.0
2016-Jul-19 19:26N 55°33' E 014°22'0 0.0
2016-Jul-19 18:32N 55°33' E 014°22'0 0.0
2016-Jul-19 17:14N 55°33' E 014°22'0 0.0
2016-Jul-19 16:32N 55°33' E 014°22'0 0.0
2016-Jul-19 15:32N 55°33' E 014°22'0 0.0
2016-Jul-19 14:32N 55°33' E 014°22'0 0.0
2016-Jul-19 13:26N 55°33' E 014°22'0 0.0
2016-Jul-19 12:26N 55°33' E 014°22'0 0.0
2016-Jul-19 11:32N 55°33' E 014°22'0 0.0
2016-Jul-19 10:32N 55°33' E 014°22'0 0.0
2016-Jul-19 09:32N 55°33' E 014°22'0 0.0
2016-Jul-19 08:26N 55°33' E 014°22'0 0.0
2016-Jul-19 07:32N 55°33' E 014°22'0 0.0
2016-Jul-19 04:32N 55°33' E 014°22'0 0.0
2016-Jul-19 03:26N 55°33' E 014°22'0 0.0
2016-Jul-19 02:32N 55°33' E 014°22'0 0.0
2016-Jul-19 01:26N 55°33' E 014°22'0 0.0
2016-Jul-19 00:32N 55°33' E 014°22'0 0.0
2016-Jul-18 23:32N 55°33' E 014°22'0 0.0
2016-Jul-18 22:32N 55°33' E 014°22'0 0.0
2016-Jul-18 21:32N 55°33' E 014°22'0 0.0
2016-Jul-18 20:14N 55°33' E 014°22'0 0.0
2016-Jul-18 19:32N 55°33' E 014°22'0 0.0
2016-Jul-18 18:32N 55°33' E 014°22'0 0.0
2016-Jul-18 17:32N 55°33' E 014°22'0 0.0
2016-Jul-18 16:32N 55°33' E 014°22'8 4.0
2016-Jul-18 14:33N 55°25' E 014°20'7 6.9
2016-Jul-18 13:33N 55°20' E 014°13'7 7.1
2016-Jul-18 12:33N 55°14' E 014°06'8 6.6
2016-Jul-18 11:21N 55°08' E 013°57'9 1.6
2016-Jul-18 05:33N 55°08' E 014°13'3 3.1
2016-Jul-18 04:32N 55°10' E 014°16'3 3.1
2016-Jul-18 03:33N 55°13' E 014°18'8 7.7
2016-Jul-18 02:33N 55°20' E 014°21'9 7.7
2016-Jul-18 01:24N 55°29' E 014°23'4 3.6
2016-Jul-18 00:15N 55°33' E 014°22'0 0.0
2016-Jul-17 23:33N 55°33' E 014°22'0 0.0
2016-Jul-17 22:27N 55°33' E 014°22'0 0.0
2016-Jul-17 21:33N 55°33' E 014°22'0 0.0
2016-Jul-17 20:27N 55°33' E 014°22'0 0.0
2016-Jul-17 19:33N 55°33' E 014°22'0 0.0
2016-Jul-17 18:27N 55°33' E 014°22'0 0.0
2016-Jul-17 17:33N 55°33' E 014°22'0 0.0
2016-Jul-17 16:33N 55°33' E 014°22'0 0.0
2016-Jul-17 15:33N 55°33' E 014°22'0 0.0
2016-Jul-17 13:33N 55°33' E 014°22'0 0.0
2016-Jul-17 12:33N 55°33' E 014°22'0 0.0
2016-Jul-17 11:27N 55°33' E 014°22'0 0.0
2016-Jul-17 10:27N 55°33' E 014°22'0 0.0
2016-Jul-17 09:33N 55°33' E 014°22'0 0.0
2016-Jul-17 08:27N 55°33' E 014°22'0 0.0
2016-Jul-17 07:09N 55°33' E 014°22'0 0.0
2016-Jul-17 06:27N 55°33' E 014°22'0 0.0
2016-Jul-17 04:33N 55°33' E 014°22'0 0.0
2016-Jul-17 03:33N 55°33' E 014°22'0 0.0
2016-Jul-17 02:27N 55°33' E 014°22'0 0.0
2016-Jul-17 01:27N 55°33' E 014°22'0 0.0
2016-Jul-17 00:27N 55°33' E 014°22'0 0.0
2016-Jul-16 23:27N 55°33' E 014°22'0 0.0
2016-Jul-16 22:21N 55°33' E 014°22'0 0.0
2016-Jul-16 21:27N 55°33' E 014°22'0 0.0
2016-Jul-16 20:27N 55°33' E 014°22'0 0.0
2016-Jul-16 19:09N 55°33' E 014°22'0 0.0
2016-Jul-16 17:21N 55°33' E 014°22'0 0.0
2016-Jul-16 16:27N 55°33' E 014°22'0 0.0
2016-Jul-16 15:33N 55°33' E 014°22'  
Track history (hours):
 
Tides and Currents Weather Stations Pressure Air Temp Water Temp Dewpoint Dewpoint Depression Visibility Wind Speed Wind Dir Waves Ship Positions

Linzy

Last reported at 2016-Jul-26 15:27 UTC. Time now 2016-Jul-26 16:04 UTC.
Position N 55°33' E 014°22'.

Length 15 m.

Type: Fishing. MMSI: 265507290.

Date/timePositionNaut miles runAvg speedWind from/ knotsBaromVisibWave heightAir tempDewpointWater temp
2016-Jul-26 15:27N 55°33' E 014°22'0 0.0
2016-Jul-26 14:33N 55°33' E 014°22'5 4.6
2016-Jul-26 13:32N 55°35' E 014°29'4 4.2
2016-Jul-26 12:28N 55°35' E 014°37'2 2.6
2016-Jul-26 11:31N 55°33' E 014°41'3 2.9
2016-Jul-26 10:33N 55°32' E 014°46'3 2.7
2016-Jul-26 09:33N 55°30' E 014°48'3 2.8
2016-Jul-26 08:34N 55°29' E 014°53'0 0.3
2016-Jul-26 07:16N 55°29' E 014°54'2 3.0
2016-Jul-26 06:33N 55°30' E 014°50'3 3.0
2016-Jul-26 05:33N 55°31' E 014°46'3 3.0
2016-Jul-26 04:31N 55°32' E 014°40'3 3.0
2016-Jul-26 03:34N 55°34' E 014°36'5 3.5
2016-Jul-26 02:17N 55°35' E 014°28'4 5.2
2016-Jul-26 01:30N 55°33' E 014°22'0 0.0
2016-Jul-26 00:30N 55°33' E 014°22'0 0.0
2016-Jul-25 22:18N 55°33' E 014°22'0 0.0
2016-Jul-25 21:30N 55°33' E 014°22'0 0.0
2016-Jul-25 20:12N 55°33' E 014°22'0 0.0
2016-Jul-25 19:06N 55°33' E 014°22'0 0.0
2016-Jul-25 18:12N 55°33' E 014°22'0 0.0
2016-Jul-25 17:30N 55°33' E 014°22'0 0.0
2016-Jul-25 16:30N 55°33' E 014°22'0 0.0
2016-Jul-25 15:30N 55°33' E 014°22'0 0.0
2016-Jul-25 14:30N 55°33' E 014°22'0 0.0
2016-Jul-25 13:30N 55°33' E 014°22'0 0.0
2016-Jul-25 11:24N 55°33' E 014°22'1 1.2
2016-Jul-25 10:33N 55°34' E 014°23'5 5.0
2016-Jul-25 09:32N 55°33' E 014°32'7 7.0
2016-Jul-25 08:33N 55°31' E 014°44'6 4.1
2016-Jul-25 07:11N 55°29' E 014°53'1 2.2
2016-Jul-25 06:33N 55°30' E 014°51'3 2.9
2016-Jul-25 05:33N 55°31' E 014°46'3 3.0
2016-Jul-25 04:32N 55°32' E 014°41'3 3.1
2016-Jul-25 03:34N 55°34' E 014°37'3 3.3
2016-Jul-25 02:33N 55°35' E 014°32'6 3.0
2016-Jul-25 00:31N 55°33' E 014°22'0 0.0
2016-Jul-24 23:19N 55°33' E 014°22'0 0.0
2016-Jul-24 22:31N 55°33' E 014°22'0 0.0
2016-Jul-24 21:25N 55°33' E 014°22'0 0.0
2016-Jul-24 20:31N 55°33' E 014°22'0 0.0
2016-Jul-24 19:13N 55°33' E 014°22'0 0.0
2016-Jul-24 18:25N 55°33' E 014°22'0 0.0
2016-Jul-24 16:25N 55°33' E 014°22'0 0.0
2016-Jul-24 15:31N 55°33' E 014°22'0 0.0
2016-Jul-24 14:31N 55°33' E 014°22'0 0.0
2016-Jul-24 13:25N 55°33' E 014°22'0 0.0
2016-Jul-24 12:31N 55°33' E 014°22'0 0.0
2016-Jul-24 11:31N 55°33' E 014°22'0 0.0
2016-Jul-24 10:31N 55°33' E 014°22'0 0.0
2016-Jul-24 09:19N 55°33' E 014°22'0 0.0
2016-Jul-24 08:25N 55°33' E 014°22'0 0.0
2016-Jul-24 07:31N 55°33' E 014°22'0 0.0
2016-Jul-24 06:25N 55°33' E 014°22'0 0.0
2016-Jul-24 05:31N 55°33' E 014°22'0 0.0
2016-Jul-24 04:31N 55°33' E 014°22'0 0.0
2016-Jul-24 03:31N 55°33' E 014°22'0 0.0
2016-Jul-24 02:31N 55°33' E 014°22'0 0.0
2016-Jul-24 01:31N 55°33' E 014°21'0 0.0
2016-Jul-24 00:31N 55°33' E 014°22'0 0.0
2016-Jul-23 23:07N 55°33' E 014°22'0 0.0
2016-Jul-23 22:31N 55°33' E 014°22'0 0.0
2016-Jul-23 20:31N 55°33' E 014°22'0 0.0
2016-Jul-23 19:31N 55°33' E 014°22'0 0.0
2016-Jul-23 18:31N 55°33' E 014°22'0 0.0
2016-Jul-23 17:25N 55°33' E 014°22'0 0.0
2016-Jul-23 16:31N 55°33' E 014°22'0 0.0
2016-Jul-23 15:31N 55°33' E 014°22'0 0.0
2016-Jul-23 14:31N 55°33' E 014°22'0 0.0
2016-Jul-23 11:31N 55°33' E 014°22'0 0.0
2016-Jul-23 10:25N 55°33' E 014°22'0 0.0
2016-Jul-23 09:31N 55°33' E 014°22'0 0.0
2016-Jul-23 08:31N 55°33' E 014°22'0 0.0
2016-Jul-23 07:31N 55°33' E 014°22'0 0.0
2016-Jul-23 06:31N 55°33' E 014°22'0 0.0
2016-Jul-23 04:31N 55°33' E 014°22'0 0.0
2016-Jul-23 03:19N 55°33' E 014°22'0 0.0
2016-Jul-23 02:31N 55°33' E 014°22'0 0.0
2016-Jul-23 01:31N 55°33' E 014°22'0 0.0
2016-Jul-23 00:25N 55°33' E 014°22'0 0.0
2016-Jul-22 23:31N 55°33' E 014°22'0 0.0
2016-Jul-22 22:31N 55°33' E 014°22'0 0.0
2016-Jul-22 21:31N 55°33' E 014°22'0 0.0
2016-Jul-22 20:31N 55°33' E 014°22'0 0.0
2016-Jul-22 19:31N 55°33' E 014°22'0 0.0
2016-Jul-22 18:31N 55°33' E 014°22'0 0.0
2016-Jul-22 17:31N 55°33' E 014°22'0 0.0
2016-Jul-22 16:13N 55°33' E 014°22'0 0.0
2016-Jul-22 15:31N 55°33' E 014°22'0 0.0
2016-Jul-22 14:31N 55°33' E 014°22'0 0.0
2016-Jul-22 13:31N 55°33' E 014°22'0 0.0
2016-Jul-22 12:31N 55°33' E 014°22'0 0.0
2016-Jul-22 11:31N 55°33' E 014°22'0 0.0
2016-Jul-22 10:31N 55°33' E 014°22'0 0.0
2016-Jul-22 09:25N 55°33' E 014°22'0 0.0
2016-Jul-22 08:19N 55°33' E 014°22'0 0.0
2016-Jul-22 07:31N 55°33' E 014°22'0 0.0
2016-Jul-22 04:31N 55°33' E 014°22'0 0.0
2016-Jul-22 03:31N 55°33' E 014°22'0 0.0
2016-Jul-22 02:31N 55°33' E 014°21'0 0.0
2016-Jul-22 01:13N 55°33' E 014°22'0 0.0
2016-Jul-22 00:31N 55°33' E 014°22'0 0.0
2016-Jul-21 23:31N 55°33' E 014°22'0 0.0
2016-Jul-21 22:25N 55°33' E 014°22'0 0.0
2016-Jul-21 21:31N 55°33' E 014°22'0 0.0
2016-Jul-21 20:31N 55°33' E 014°22'0 0.0
2016-Jul-21 19:31N 55°33' E 014°22'0 0.0
2016-Jul-21 18:31N 55°33' E 014°22'0 0.0
2016-Jul-21 17:19N 55°33' E 014°22'0 0.0
2016-Jul-21 16:31N 55°33' E 014°22'0 0.0
2016-Jul-21 15:31N 55°33' E 014°22'0 0.0
2016-Jul-21 14:31N 55°33' E 014°22'0 0.0
2016-Jul-21 13:31N 55°33' E 014°22'0 0.0
2016-Jul-21 12:31N 55°33' E 014°22'0 0.0
2016-Jul-21 11:19N 55°33' E 014°22'0 0.0
2016-Jul-21 10:32N 55°33' E 014°22'0 0.0
2016-Jul-21 09:31N 55°33' E 014°22'0 0.0
2016-Jul-21 08:25N 55°33' E 014°22'0 0.0
2016-Jul-21 07:20N 55°33' E 014°22'0 0.0
2016-Jul-21 06:20N 55°33' E 014°22'0 0.0
2016-Jul-21 05:32N 55°33' E 014°22'0 0.0
2016-Jul-21 04:26N 55°33' E 014°22'0 0.0
2016-Jul-21 03:32N 55°33' E 014°22'0 0.0
2016-Jul-21 02:32N 55°33' E 014°22'0 0.0
2016-Jul-21 01:14N 55°33' E 014°22'0 0.0
2016-Jul-21 00:32N 55°33' E 014°22'0 0.0
2016-Jul-20 23:32N 55°33' E 014°22'0 0.0
2016-Jul-20 22:32N 55°33' E 014°22'0 0.0
2016-Jul-20 21:26N 55°33' E 014°22'0 0.0
2016-Jul-20 20:32N 55°33' E 014°22'0 0.0
2016-Jul-20 19:32N 55°33' E 014°22'0 0.0
2016-Jul-20 18:26N 55°33' E 014°22'0 0.0
2016-Jul-20 17:32N 55°33' E 014°22'0 0.0
2016-Jul-20 16:32N 55°33' E 014°22'0 0.0
2016-Jul-20 15:32N 55°33' E 014°22'0 0.0
2016-Jul-20 14:32N 55°33' E 014°22'0 0.0
2016-Jul-20 13:32N 55°33' E 014°22'0 0.0
2016-Jul-20 12:32N 55°33' E 014°22'0 0.0
2016-Jul-20 11:32N 55°33' E 014°22'0 0.0
2016-Jul-20 10:32N 55°33' E 014°22'0 0.0
2016-Jul-20 09:32N 55°33' E 014°22'0 0.0
2016-Jul-20 08:32N 55°33' E 014°22'0 0.0
2016-Jul-20 07:26N 55°33' E 014°22'0 0.0
2016-Jul-20 06:32N 55°33' E 014°22'0 0.0
2016-Jul-20 05:32N 55°33' E 014°22'0 0.0
2016-Jul-20 04:26N 55°33' E 014°22'0 0.0
2016-Jul-20 03:32N 55°33' E 014°22'0 0.0
2016-Jul-20 02:20N 55°33' E 014°22'0 0.0
2016-Jul-20 01:20N 55°33' E 014°22'0 0.0
2016-Jul-20 00:32N 55°33' E 014°22'0 0.0
2016-Jul-19 23:32N 55°33' E 014°22'0 0.0
2016-Jul-19 22:26N 55°33' E 014°22'0 0.0
2016-Jul-19 21:26N 55°33' E 014°22'0 0.0
2016-Jul-19 20:26N 55°33' E 014°22'0 0.0
2016-Jul-19 19:26N 55°33' E 014°22'0 0.0
2016-Jul-19 18:32N 55°33' E 014°22'0 0.0
2016-Jul-19 17:14N 55°33' E 014°22'0 0.0
2016-Jul-19 16:32N 55°33' E 014°22'0 0.0
2016-Jul-19 15:32N 55°33' E 014°22'0 0.0
2016-Jul-19 14:32N 55°33' E 014°22'0 0.0
2016-Jul-19 13:26N 55°33' E 014°22'0 0.0
2016-Jul-19 12:26N 55°33' E 014°22'0 0.0
2016-Jul-19 11:32N 55°33' E 014°22'0 0.0
2016-Jul-19 10:32N 55°33' E 014°22'0 0.0
2016-Jul-19 09:32N 55°33' E 014°22'0 0.0
2016-Jul-19 08:26N 55°33' E 014°22'0 0.0
2016-Jul-19 07:32N 55°33' E 014°22'0 0.0
2016-Jul-19 04:32N 55°33' E 014°22'0 0.0
2016-Jul-19 03:26N 55°33' E 014°22'0 0.0
2016-Jul-19 02:32N 55°33' E 014°22'0 0.0
2016-Jul-19 01:26N 55°33' E 014°22'0 0.0
2016-Jul-19 00:32N 55°33' E 014°22'0 0.0
2016-Jul-18 23:32N 55°33' E 014°22'0 0.0
2016-Jul-18 22:32N 55°33' E 014°22'0 0.0
2016-Jul-18 21:32N 55°33' E 014°22'0 0.0
2016-Jul-18 20:14N 55°33' E 014°22'0 0.0
2016-Jul-18 19:32N 55°33' E 014°22'0 0.0
2016-Jul-18 18:32N 55°33' E 014°22'0 0.0
2016-Jul-18 17:32N 55°33' E 014°22'0 0.0
2016-Jul-18 16:32N 55°33' E 014°22'8 4.0
2016-Jul-18 14:33N 55°25' E 014°20'7 6.9
2016-Jul-18 13:33N 55°20' E 014°13'7 7.1
2016-Jul-18 12:33N 55°14' E 014°06'8 6.6
2016-Jul-18 11:21N 55°08' E 013°57'9 1.6
2016-Jul-18 05:33N 55°08' E 014°13'3 3.1
2016-Jul-18 04:32N 55°10' E 014°16'3 3.1
2016-Jul-18 03:33N 55°13' E 014°18'8 7.7
2016-Jul-18 02:33N 55°20' E 014°21'9 7.7
2016-Jul-18 01:24N 55°29' E 014°23'4 3.6
2016-Jul-18 00:15N 55°33' E 014°22'0 0.0
2016-Jul-17 23:33N 55°33' E 014°22'0 0.0
2016-Jul-17 22:27N 55°33' E 014°22'0 0.0
2016-Jul-17 21:33N 55°33' E 014°22'0 0.0
2016-Jul-17 20:27N 55°33' E 014°22'0 0.0
2016-Jul-17 19:33N 55°33' E 014°22'0 0.0
2016-Jul-17 18:27N 55°33' E 014°22'0 0.0
2016-Jul-17 17:33N 55°33' E 014°22'0 0.0
2016-Jul-17 16:33N 55°33' E 014°22'0 0.0
2016-Jul-17 15:33N 55°33' E 014°22'0 0.0
2016-Jul-17 13:33N 55°33' E 014°22'0 0.0
2016-Jul-17 12:33N 55°33' E 014°22'0 0.0
2016-Jul-17 11:27N 55°33' E 014°22'0 0.0
2016-Jul-17 10:27N 55°33' E 014°22'0 0.0
2016-Jul-17 09:33N 55°33' E 014°22'0 0.0
2016-Jul-17 08:27N 55°33' E 014°22'0 0.0
2016-Jul-17 07:09N 55°33' E 014°22'0 0.0
2016-Jul-17 06:27N 55°33' E 014°22'0 0.0
2016-Jul-17 04:33N 55°33' E 014°22'0 0.0
2016-Jul-17 03:33N 55°33' E 014°22'0 0.0
2016-Jul-17 02:27N 55°33' E 014°22'0 0.0
2016-Jul-17 01:27N 55°33' E 014°22'0 0.0
2016-Jul-17 00:27N 55°33' E 014°22'0 0.0
2016-Jul-16 23:27N 55°33' E 014°22'0 0.0
2016-Jul-16 22:21N 55°33' E 014°22'0 0.0
2016-Jul-16 21:27N 55°33' E 014°22'0 0.0
2016-Jul-16 20:27N 55°33' E 014°22'0 0.0
2016-Jul-16 19:09N 55°33' E 014°22'0 0.0
2016-Jul-16 17:21N 55°33' E 014°22'0 0.0
2016-Jul-16 16:27N 55°33' E 014°22'0 0.0
2016-Jul-16 15:33N 55°33' E 014°22'  

Dump ship's entire track history